createdAt,value
2022-12-25T00:00:42.754Z,99169.34
2022-12-25T00:03:09.799Z,99165.91
2022-12-25T00:05:39.294Z,99164.94
2022-12-25T00:08:07.371Z,99154.13
2022-12-25T00:10:35.660Z,99161.56
2022-12-25T00:13:05.477Z,99157.09
2022-12-25T00:15:32.448Z,99159.06
2022-12-25T00:17:59.742Z,99165.13
2022-12-25T00:20:29.497Z,99156.06
2022-12-25T00:22:56.030Z,99161.56
2022-12-25T00:25:23.442Z,99170.50
2022-12-25T00:27:50.360Z,99169.63
2022-12-25T00:30:17.294Z,99176.56
2022-12-25T00:32:46.317Z,99163.41
2022-12-25T00:35:13.464Z,99169.22
2022-12-25T00:37:40.499Z,99169.38
2022-12-25T00:40:09.656Z,99175.41
2022-12-25T00:42:36.495Z,99177.38
2022-12-25T00:45:03.612Z,99169.91
2022-12-25T00:47:30.658Z,99165.63
2022-12-25T00:49:57.522Z,99170.06
2022-12-25T00:52:24.628Z,99165.50
2022-12-25T00:54:51.694Z,99160.66
2022-12-25T00:57:18.764Z,99168.88
2022-12-25T00:59:45.766Z,99171.75
2022-12-25T01:02:13.047Z,99176.59
2022-12-25T01:04:40.411Z,99183.88
2022-12-25T01:07:07.369Z,99176.81
2022-12-25T01:09:34.816Z,99179.34
2022-12-25T01:12:01.837Z,99186.63
2022-12-25T01:14:28.762Z,99182.66
2022-12-25T01:16:55.955Z,99175.75
2022-12-25T01:19:22.983Z,99169.25
2022-12-25T01:21:49.971Z,99177.88
2022-12-25T01:24:17.211Z,99185.81
2022-12-25T01:26:44.802Z,99184.06
2022-12-25T01:29:11.692Z,99202.56
2022-12-25T01:31:38.965Z,99202.13
2022-12-25T01:34:06.085Z,99202.69
2022-12-25T01:36:33.839Z,99198.44
2022-12-25T01:39:01.043Z,99202.88
2022-12-25T01:41:28.240Z,99195.44
2022-12-25T01:44:29.541Z,99190.72
2022-12-25T01:46:56.667Z,99194.88
2022-12-25T01:49:26.288Z,99181.44
2022-12-25T01:52:04.978Z,99188.09
2022-12-25T01:54:36.450Z,99185.94
2022-12-25T01:57:09.678Z,99189.69
2022-12-25T01:59:36.609Z,99183.81
2022-12-25T02:02:04.659Z,99186.13
2022-12-25T02:04:36.214Z,99178.97
2022-12-25T02:07:03.427Z,99173.53
2022-12-25T02:09:29.934Z,99167.78
2022-12-25T02:11:56.496Z,99166.38
2022-12-25T02:14:24.905Z,99163.06
2022-12-25T02:17:02.486Z,99167.97
2022-12-25T02:19:41.068Z,99175.47
2022-12-25T02:22:25.565Z,99177.75
2022-12-25T02:25:21.793Z,99173.59
2022-12-25T02:27:52.298Z,99173.97
2022-12-25T02:30:19.537Z,99172.22
2022-12-25T02:33:28.837Z,99187.84
2022-12-25T02:35:57.193Z,99182.38
2022-12-25T02:38:37.203Z,99180.94
2022-12-25T02:41:16.302Z,99187.19
2022-12-25T02:43:46.351Z,99191.69
2022-12-25T02:46:19.533Z,99186.03
2022-12-25T02:48:55.304Z,99170.31
2022-12-25T02:51:26.561Z,99176.00
2022-12-25T02:53:58.475Z,99189.13
2022-12-25T02:56:29.164Z,99185.13
2022-12-25T02:58:56.003Z,99177.09
2022-12-25T03:01:28.945Z,99171.34
2022-12-25T03:04:01.191Z,99173.16
2022-12-25T03:06:32.527Z,99172.72
2022-12-25T03:09:03.176Z,99160.44
2022-12-25T03:11:30.135Z,99165.91
2022-12-25T03:14:03.850Z,99161.09
2022-12-25T03:16:30.963Z,99153.66
2022-12-25T03:19:00.283Z,99151.09
2022-12-25T03:21:26.869Z,99147.19
2022-12-25T03:24:00.449Z,99136.88
2022-12-25T03:26:28.334Z,99135.47
2022-12-25T03:28:55.365Z,99145.78
2022-12-25T03:31:44.958Z,99132.22
2022-12-25T03:34:20.000Z,99137.84
2022-12-25T03:37:14.841Z,99138.78
2022-12-25T03:40:09.109Z,99137.84
2022-12-25T03:42:49.440Z,99125.19
2022-12-25T03:45:21.361Z,99130.75
2022-12-25T03:47:52.338Z,99129.84
2022-12-25T03:50:26.099Z,99125.22
2022-12-25T03:52:56.713Z,99136.13
2022-12-25T03:55:25.464Z,99119.94
2022-12-25T03:57:52.591Z,99140.00
2022-12-25T04:00:20.247Z,99133.16
2022-12-25T04:02:47.217Z,99128.94
2022-12-25T04:05:14.197Z,99130.97
2022-12-25T04:07:41.765Z,99135.19
2022-12-25T04:10:09.673Z,99129.44
2022-12-25T04:12:36.643Z,99125.53
2022-12-25T04:15:03.917Z,99117.66
2022-12-25T04:17:30.968Z,99125.47
2022-12-25T04:19:57.925Z,99126.44
2022-12-25T04:22:24.941Z,99135.53
2022-12-25T04:24:52.212Z,99129.22
2022-12-25T04:27:19.061Z,99129.06
2022-12-25T04:29:46.479Z,99129.84
2022-12-25T04:32:13.512Z,99139.94
2022-12-25T04:34:40.660Z,99134.13
2022-12-25T04:37:07.882Z,99134.56
2022-12-25T04:39:34.767Z,99127.22
2022-12-25T04:42:01.769Z,99124.34
2022-12-25T04:44:28.886Z,99120.91
2022-12-25T04:46:55.977Z,99122.09
2022-12-25T04:49:23.592Z,99119.47
2022-12-25T04:51:50.546Z,99116.38
2022-12-25T04:54:17.589Z,99125.03
2022-12-25T04:56:46.015Z,99109.84
2022-12-25T04:59:13.311Z,99108.13
2022-12-25T05:01:40.487Z,99122.06
2022-12-25T05:04:07.978Z,99114.81
2022-12-25T05:06:35.277Z,99114.41
2022-12-25T05:09:02.289Z,99113.16
2022-12-25T05:11:29.148Z,99105.66
2022-12-25T05:13:57.561Z,99113.63
2022-12-25T05:16:25.257Z,99103.84
2022-12-25T05:18:52.397Z,99086.16
2022-12-25T05:21:19.887Z,99101.44
2022-12-25T05:23:51.224Z,99096.78
2022-12-25T05:26:21.348Z,99096.19
2022-12-25T05:28:48.551Z,99087.19
2022-12-25T05:31:15.807Z,99083.03
2022-12-25T05:33:42.912Z,99076.56
2022-12-25T05:36:12.156Z,99080.53
2022-12-25T05:38:39.384Z,99081.84
2022-12-25T05:41:07.197Z,99075.09
2022-12-25T05:43:34.176Z,99081.13
2022-12-25T05:46:08.652Z,99073.16
2022-12-25T05:48:37.316Z,99083.28
2022-12-25T05:51:10.230Z,99079.72
2022-12-25T05:53:37.814Z,99077.91
2022-12-25T05:56:07.087Z,99077.06
2022-12-25T05:58:36.151Z,99076.63
2022-12-25T06:01:03.534Z,99069.72
2022-12-25T06:03:30.706Z,99072.09
2022-12-25T06:05:58.014Z,99063.66
2022-12-25T06:08:25.160Z,99054.94
2022-12-25T06:10:52.655Z,99051.78
2022-12-25T06:13:19.629Z,99051.91
2022-12-25T06:15:46.535Z,99051.88
2022-12-25T06:18:13.513Z,99056.69
2022-12-25T06:20:41.718Z,99054.91
2022-12-25T06:23:08.605Z,99051.69
2022-12-25T06:25:39.318Z,99043.84
2022-12-25T06:28:07.523Z,99048.28
2022-12-25T06:30:34.711Z,99043.31
2022-12-25T06:33:01.653Z,99056.50
2022-12-25T06:35:28.869Z,99054.94
2022-12-25T06:37:55.717Z,99059.53
2022-12-25T06:40:22.652Z,99064.06
2022-12-25T06:42:49.881Z,99056.09
2022-12-25T06:45:16.801Z,99055.25
2022-12-25T06:47:43.740Z,99069.44
2022-12-25T06:50:11.085Z,99067.75
2022-12-25T06:52:38.035Z,99071.34
2022-12-25T06:55:05.335Z,99068.75
2022-12-25T06:57:32.980Z,99051.56
2022-12-25T07:00:00.278Z,99061.25
2022-12-25T07:02:27.571Z,99065.47
2022-12-25T07:04:55.022Z,99068.78
2022-12-25T07:07:21.918Z,99070.06
2022-12-25T07:09:48.938Z,99068.13
2022-12-25T07:12:24.331Z,99064.16
2022-12-25T07:14:54.532Z,99076.13
2022-12-25T07:17:22.495Z,99069.78
2022-12-25T07:19:50.201Z,99075.13
2022-12-25T07:22:17.532Z,99063.78
2022-12-25T07:24:44.953Z,99060.72
2022-12-25T07:27:12.592Z,99082.81
2022-12-25T07:29:40.785Z,99074.69
2022-12-25T07:32:07.902Z,99078.03
2022-12-25T07:34:35.064Z,99078.75
2022-12-25T07:37:02.388Z,99080.66
2022-12-25T07:39:29.591Z,99077.50
2022-12-25T07:41:56.701Z,99077.00
2022-12-25T07:44:23.414Z,99081.25
2022-12-25T07:46:50.635Z,99088.84
2022-12-25T07:49:18.065Z,99089.06
2022-12-25T07:51:44.607Z,99091.03
2022-12-25T07:54:11.455Z,99090.00
2022-12-25T07:56:38.780Z,99101.38
2022-12-25T07:59:05.659Z,99102.44
2022-12-25T08:01:32.641Z,99109.28
2022-12-25T08:04:01.761Z,99114.22
2022-12-25T08:06:32.988Z,99112.31
2022-12-25T08:09:09.179Z,99108.72
2022-12-25T08:11:36.477Z,99110.44
2022-12-25T08:14:09.234Z,99107.34
2022-12-25T08:16:35.985Z,99110.88
2022-12-25T08:19:02.672Z,99113.00
2022-12-25T08:21:29.853Z,99126.47
2022-12-25T08:23:57.163Z,99114.47
2022-12-25T08:26:24.558Z,99119.47
2022-12-25T08:28:51.186Z,99130.91
2022-12-25T08:31:20.533Z,99139.19
2022-12-25T08:33:49.205Z,99140.88
2022-12-25T08:36:17.369Z,99122.03
2022-12-25T08:38:45.066Z,99131.94
2022-12-25T08:41:13.228Z,99134.44
2022-12-25T08:43:40.188Z,99151.38
2022-12-25T08:46:08.215Z,99147.19
2022-12-25T08:48:35.581Z,99139.44
2022-12-25T08:51:03.856Z,99139.69
2022-12-25T08:53:31.357Z,99127.63
2022-12-25T08:56:02.349Z,99124.81
2022-12-25T08:58:29.169Z,99124.22
2022-12-25T09:00:56.303Z,99131.75
2022-12-25T09:03:24.387Z,99132.56
2022-12-25T09:05:52.906Z,99139.88
2022-12-25T09:08:21.013Z,99134.63
2022-12-25T09:10:48.774Z,99136.06
2022-12-25T09:13:15.753Z,99120.97
2022-12-25T09:15:42.911Z,99110.47
2022-12-25T09:18:09.967Z,99124.38
2022-12-25T09:20:36.832Z,99137.88
2022-12-25T09:23:07.237Z,99151.53
2022-12-25T09:25:36.978Z,99154.41
2022-12-25T09:28:04.027Z,99147.31
2022-12-25T09:30:31.041Z,99150.50
2022-12-25T09:32:57.809Z,99140.41
2022-12-25T09:35:25.181Z,99143.53
2022-12-25T09:37:52.137Z,99153.84
2022-12-25T09:40:21.458Z,99143.63
2022-12-25T09:42:49.715Z,99144.47
2022-12-25T09:45:36.967Z,99143.44
2022-12-25T09:48:04.943Z,99123.34
2022-12-25T09:50:50.325Z,99128.75
2022-12-25T09:53:23.557Z,99133.44
2022-12-25T09:56:04.184Z,99142.59
2022-12-25T09:58:34.550Z,99142.59
2022-12-25T10:01:04.158Z,99137.09
2022-12-25T10:04:02.949Z,99150.00
2022-12-25T10:06:45.001Z,99159.16
2022-12-25T10:09:28.840Z,99145.28
2022-12-25T10:12:20.518Z,99147.44
2022-12-25T10:15:01.285Z,99141.69
2022-12-25T10:17:43.553Z,99156.72
2022-12-25T10:20:36.576Z,99173.66
2022-12-25T10:23:12.368Z,99166.97
2022-12-25T10:25:40.665Z,99152.88
2022-12-25T10:28:19.914Z,99161.97
2022-12-25T10:30:47.033Z,99163.09
2022-12-25T10:33:17.095Z,99167.16
2022-12-25T10:35:45.514Z,99160.56
2022-12-25T10:38:17.927Z,99169.91
2022-12-25T10:40:56.662Z,99168.44
2022-12-25T10:43:30.387Z,99161.63
2022-12-25T10:45:57.300Z,99148.25
2022-12-25T10:48:30.520Z,99147.38
2022-12-25T10:50:57.555Z,99151.84
2022-12-25T10:53:27.677Z,99159.53
2022-12-25T10:55:55.672Z,99159.66
2022-12-25T10:58:22.631Z,99156.06
2022-12-25T11:01:00.573Z,99165.09
2022-12-25T11:03:31.710Z,99166.13
2022-12-25T11:05:59.362Z,99160.25
2022-12-25T11:08:29.100Z,99156.09
2022-12-25T11:11:02.659Z,99153.56
2022-12-25T11:13:31.018Z,99152.69
2022-12-25T11:16:09.025Z,99149.78
2022-12-25T11:18:48.679Z,99156.03
2022-12-25T11:21:33.139Z,99148.84
2022-12-25T11:24:01.760Z,99151.97
2022-12-25T11:26:31.189Z,99154.56
2022-12-25T11:28:59.295Z,99144.63
2022-12-25T11:31:39.866Z,99144.00
2022-12-25T11:34:40.391Z,99143.06
2022-12-25T11:37:16.485Z,99144.97
2022-12-25T11:39:43.617Z,99138.88
2022-12-25T11:42:27.113Z,99137.50
2022-12-25T11:45:04.282Z,99131.44
2022-12-25T11:47:34.577Z,99133.69
2022-12-25T11:50:28.257Z,99135.63
2022-12-25T11:52:56.085Z,99129.41
2022-12-25T11:55:43.378Z,99127.69
2022-12-25T11:58:22.123Z,99126.44
2022-12-25T12:00:53.584Z,99126.50
2022-12-25T12:03:28.480Z,99119.38
2022-12-25T12:06:04.781Z,99115.22
2022-12-25T12:08:34.249Z,99110.19
2022-12-25T12:11:05.641Z,99103.19
2022-12-25T12:14:03.351Z,99098.22
2022-12-25T12:16:30.407Z,99096.09
2022-12-25T12:18:57.211Z,99095.09
2022-12-25T12:21:25.568Z,99084.25
2022-12-25T12:23:56.275Z,99078.78
2022-12-25T12:26:28.776Z,99082.13
2022-12-25T12:29:01.125Z,99072.06
2022-12-25T12:31:47.774Z,99081.69
2022-12-25T12:34:25.007Z,99067.81
2022-12-25T12:37:01.943Z,99066.09
2022-12-25T12:39:35.806Z,99061.16
2022-12-25T12:42:11.927Z,99059.47
2022-12-25T12:44:39.001Z,99054.66
2022-12-25T12:47:09.977Z,99064.19
2022-12-25T12:49:37.083Z,99047.81
2022-12-25T12:52:20.654Z,99054.44
2022-12-25T12:55:29.185Z,99062.13
2022-12-25T12:58:00.887Z,99060.44
2022-12-25T13:00:55.334Z,99058.53
2022-12-25T13:03:53.450Z,99058.88
2022-12-25T13:06:41.905Z,99058.59
2022-12-25T13:09:26.930Z,99064.84
2022-12-25T13:11:54.744Z,99055.94
2022-12-25T13:14:24.068Z,99052.09
2022-12-25T13:16:53.897Z,99041.00
2022-12-25T13:19:26.001Z,99047.94
2022-12-25T13:22:01.229Z,99046.59
2022-12-25T13:24:31.286Z,99050.78
2022-12-25T13:26:59.447Z,99037.56
2022-12-25T13:29:33.734Z,99029.53
2022-12-25T13:32:03.090Z,99021.97
2022-12-25T13:34:35.985Z,99024.06
2022-12-25T13:37:14.227Z,99029.59
2022-12-25T13:40:00.876Z,99027.38
2022-12-25T13:42:31.491Z,99029.03
2022-12-25T13:45:05.013Z,99028.47
2022-12-25T13:47:37.748Z,99038.44
2022-12-25T13:50:30.460Z,99027.06
2022-12-25T13:53:11.400Z,99024.34
2022-12-25T13:55:38.836Z,99014.63
2022-12-25T13:58:07.023Z,99014.38
2022-12-25T14:00:38.602Z,99024.00
2022-12-25T14:03:07.091Z,99020.66
2022-12-25T14:05:43.013Z,99017.88
2022-12-25T14:08:22.830Z,99021.78
2022-12-25T14:10:51.576Z,99018.44
2022-12-25T14:13:21.406Z,99031.16
2022-12-25T14:15:49.766Z,99029.03
2022-12-25T14:18:21.614Z,99027.88
2022-12-25T14:20:59.938Z,99016.97
2022-12-25T14:23:31.861Z,99019.59
2022-12-25T14:25:58.768Z,99013.94
2022-12-25T14:28:28.649Z,99023.63
2022-12-25T14:30:55.702Z,99026.53
2022-12-25T14:33:25.321Z,99028.75
2022-12-25T14:35:53.291Z,99020.63
2022-12-25T14:38:26.959Z,99025.59
2022-12-25T14:41:25.789Z,99015.19
2022-12-25T14:43:55.315Z,99021.78
2022-12-25T14:46:24.898Z,99019.31
2022-12-25T14:49:05.388Z,99020.88
2022-12-25T14:51:34.159Z,99021.72
2022-12-25T14:54:14.401Z,99026.94
2022-12-25T14:56:47.785Z,99021.44
2022-12-25T14:59:19.640Z,99020.13
2022-12-25T15:01:53.618Z,99001.81
2022-12-25T15:04:21.257Z,99004.38
2022-12-25T15:07:04.682Z,99003.28
2022-12-25T15:09:31.261Z,98998.09
2022-12-25T15:11:58.368Z,98996.50
2022-12-25T15:14:27.120Z,98997.78
2022-12-25T15:17:03.306Z,98998.06
2022-12-25T15:19:37.621Z,99001.59
2022-12-25T15:22:05.104Z,98998.22
2022-12-25T15:24:32.212Z,98997.66
2022-12-25T15:26:59.618Z,99005.47
2022-12-25T15:29:59.744Z,99005.84
2022-12-25T15:32:19.681Z,99013.34
2022-12-25T15:34:46.797Z,99000.41
2022-12-25T15:37:14.332Z,99012.09
2022-12-25T15:39:42.036Z,99002.63
2022-12-25T15:42:17.603Z,99009.94
2022-12-25T15:44:45.375Z,99011.88
2022-12-25T15:47:14.572Z,99005.53
2022-12-25T15:49:41.937Z,99012.88
2022-12-25T15:52:12.900Z,99006.75
2022-12-25T15:54:40.044Z,99011.63
2022-12-25T15:57:14.134Z,99006.16
2022-12-25T15:59:41.223Z,99012.63
2022-12-25T16:02:16.875Z,99007.69
2022-12-25T16:04:44.355Z,99021.13
2022-12-25T16:07:19.780Z,99011.41
2022-12-25T16:09:47.174Z,99010.84
2022-12-25T16:12:14.117Z,99014.78
2022-12-25T16:17:10.943Z,99017.34
2022-12-25T16:19:37.465Z,99020.22
2022-12-25T16:22:12.273Z,99024.13
2022-12-25T16:24:39.161Z,99014.41
2022-12-25T16:27:06.103Z,99011.53
2022-12-25T16:29:33.171Z,99012.88
2022-12-25T16:32:00.095Z,99017.00
2022-12-25T16:34:27.001Z,99020.75
2022-12-25T16:36:54.276Z,99010.03
2022-12-25T16:39:22.920Z,99016.03
2022-12-25T16:41:50.097Z,99022.78
2022-12-25T16:44:17.127Z,99018.41
2022-12-25T16:46:44.363Z,99007.81
2022-12-25T16:49:11.359Z,99014.72
2022-12-25T16:51:38.360Z,99013.19
2022-12-25T16:54:05.764Z,99018.88
2022-12-25T16:56:32.719Z,99019.13
2022-12-25T16:58:59.528Z,99019.94
2022-12-25T17:01:27.195Z,99007.84
2022-12-25T17:03:54.410Z,99014.84
2022-12-25T17:06:25.246Z,99012.28
2022-12-25T17:08:55.627Z,99024.53
2022-12-25T17:11:22.639Z,99026.00
2022-12-25T17:13:49.693Z,99031.81
2022-12-25T17:16:19.888Z,99030.56
2022-12-25T17:18:47.418Z,99027.03
2022-12-25T17:21:14.851Z,99035.66
2022-12-25T17:23:42.110Z,99034.00
2022-12-25T17:26:08.974Z,99031.06
2022-12-25T17:28:36.017Z,99024.34
2022-12-25T17:31:08.794Z,99012.09
2022-12-25T17:33:37.076Z,99022.97
2022-12-25T17:36:06.038Z,99014.47
2022-12-25T17:38:34.636Z,99010.50
2022-12-25T17:41:03.930Z,99003.03
2022-12-25T17:43:31.858Z,99016.72
2022-12-25T17:46:05.132Z,99017.53
2022-12-25T17:48:33.846Z,99012.19
2022-12-25T17:51:01.960Z,99014.44
2022-12-25T17:53:28.477Z,99021.28
2022-12-25T17:55:58.999Z,99021.84
2022-12-25T17:58:27.187Z,99016.88
2022-12-25T18:00:55.054Z,99025.06
2022-12-25T18:03:23.056Z,99012.03
2022-12-25T18:05:50.041Z,99011.78
2022-12-25T18:08:17.169Z,99015.44
2022-12-25T18:10:44.160Z,99009.72
2022-12-25T18:13:12.164Z,99012.88
2022-12-25T18:15:42.158Z,99011.59
2022-12-25T18:18:09.219Z,99003.16
2022-12-25T18:20:40.295Z,99007.63
2022-12-25T18:23:08.733Z,98988.84
2022-12-25T18:25:43.046Z,98999.16
2022-12-25T18:28:11.080Z,99001.38
2022-12-25T18:30:42.214Z,98999.47
2022-12-25T18:33:09.667Z,98994.59
2022-12-25T18:35:44.730Z,98995.25
2022-12-25T18:38:13.663Z,99004.69
2022-12-25T18:42:05.716Z,98997.81
2022-12-25T18:44:32.443Z,99000.75
2022-12-25T18:46:59.792Z,98995.84
2022-12-25T18:49:27.197Z,98985.78
2022-12-25T18:51:54.507Z,98995.31
2022-12-25T18:54:41.903Z,98991.84
2022-12-25T18:57:10.683Z,98992.25
2022-12-25T18:59:38.028Z,98991.06
2022-12-25T19:02:07.499Z,98992.72
2022-12-25T19:04:35.871Z,98989.50
2022-12-25T19:07:03.491Z,98983.00
2022-12-25T19:09:30.707Z,98988.09
2022-12-25T19:11:58.201Z,98993.25
2022-12-25T19:14:26.920Z,98990.34
2022-12-25T19:16:54.796Z,98984.63
2022-12-25T19:19:22.652Z,98985.44
2022-12-25T19:21:52.395Z,98995.00
2022-12-25T19:24:20.310Z,98999.84
2022-12-25T19:26:48.316Z,98993.91
2022-12-25T19:29:15.555Z,98985.34
2022-12-25T19:31:44.821Z,98979.19
2022-12-25T19:34:11.970Z,98982.09
2022-12-25T19:36:39.949Z,98986.97
2022-12-25T19:39:08.964Z,98990.09
2022-12-25T19:41:36.394Z,98990.69
2022-12-25T19:44:05.406Z,98984.28
2022-12-25T19:46:35.001Z,98983.69
2022-12-25T19:49:04.725Z,98976.13
2022-12-25T19:51:34.011Z,98976.72
2022-12-25T19:54:02.256Z,98977.50
2022-12-25T19:56:29.887Z,98979.78
2022-12-25T19:58:57.745Z,98970.00
2022-12-25T20:01:28.481Z,98970.69
2022-12-25T20:03:56.067Z,98972.59
2022-12-25T20:06:27.001Z,98966.78
2022-12-25T20:08:56.317Z,98967.38
2022-12-25T20:11:25.685Z,98973.13
2022-12-25T20:13:54.116Z,98971.31
2022-12-25T20:16:21.547Z,98975.03
2022-12-25T20:18:49.056Z,98969.88
2022-12-25T20:21:18.150Z,98969.44
2022-12-25T20:23:48.663Z,98961.94
2022-12-25T20:26:16.917Z,98975.03
2022-12-25T20:28:45.092Z,98978.34
2022-12-25T20:31:15.079Z,98966.97
2022-12-25T20:33:42.421Z,98969.66
2022-12-25T20:36:10.782Z,98967.66
2022-12-25T20:38:38.351Z,98978.63
2022-12-25T20:41:27.328Z,98978.66
2022-12-25T20:43:56.834Z,98975.91
2022-12-25T20:46:24.320Z,98961.22
2022-12-25T20:48:51.223Z,98955.88
2022-12-25T20:51:20.651Z,98944.44
2022-12-25T20:53:48.594Z,98951.44
2022-12-25T20:56:19.758Z,98946.69
2022-12-25T20:58:46.958Z,98941.16
2022-12-25T21:01:17.520Z,98946.84
2022-12-25T21:03:45.173Z,98937.13
2022-12-25T21:06:13.372Z,98939.66
2022-12-25T21:08:41.354Z,98940.22
2022-12-25T21:11:09.526Z,98936.91
2022-12-25T21:13:40.797Z,98926.19
2022-12-25T21:16:10.504Z,98934.19
2022-12-25T21:18:37.725Z,98938.34
2022-12-25T21:21:06.558Z,98944.66
2022-12-25T21:23:34.706Z,98939.78
2022-12-25T21:26:10.242Z,98922.19
2022-12-25T21:28:38.916Z,98928.13
2022-12-25T21:31:08.787Z,98921.88
2022-12-25T21:33:36.275Z,98925.56
2022-12-25T21:36:07.637Z,98912.06
2022-12-25T21:38:35.310Z,98926.84
2022-12-25T21:41:05.137Z,98922.41
2022-12-25T21:43:33.255Z,98911.22
2022-12-25T21:46:04.074Z,98923.19
2022-12-25T21:48:31.988Z,98917.22
2022-12-25T21:51:02.773Z,98917.66
2022-12-25T21:53:30.017Z,98907.44
2022-12-25T21:55:58.923Z,98902.06
2022-12-25T21:58:26.229Z,98889.47
2022-12-25T22:00:53.034Z,98904.22
2022-12-25T22:03:21.913Z,98888.91
2022-12-25T22:05:49.317Z,98891.06
2022-12-25T22:08:16.505Z,98894.19
2022-12-25T22:10:43.981Z,98893.81
2022-12-25T22:13:11.227Z,98880.44
2022-12-25T22:15:38.647Z,98879.63
2022-12-25T22:18:06.218Z,98880.25
2022-12-25T22:20:38.769Z,98887.59
2022-12-25T22:23:06.636Z,98882.97
2022-12-25T22:25:34.073Z,98869.91
2022-12-25T22:28:01.317Z,98857.81
2022-12-25T22:30:29.767Z,98850.72
2022-12-25T22:32:57.615Z,98853.91
2022-12-25T22:35:25.129Z,98861.28
2022-12-25T22:37:54.336Z,98857.28
2022-12-25T22:40:22.979Z,98839.69
2022-12-25T22:42:53.070Z,98836.56
2022-12-25T22:45:20.509Z,98833.88
2022-12-25T22:47:47.759Z,98823.06
2022-12-25T22:50:16.046Z,98833.84
2022-12-25T22:52:44.026Z,98826.13
2022-12-25T22:55:17.163Z,98822.97
2022-12-25T22:57:44.743Z,98806.72
2022-12-25T23:00:13.446Z,98811.81
2022-12-25T23:02:40.898Z,98784.97
2022-12-25T23:05:09.433Z,98819.47
2022-12-25T23:07:36.797Z,98825.66
2022-12-25T23:10:05.527Z,98809.47
2022-12-25T23:12:34.633Z,98811.50
2022-12-25T23:15:02.273Z,98823.91
2022-12-25T23:17:29.608Z,98811.72
2022-12-25T23:19:57.656Z,98805.25
2022-12-25T23:22:24.499Z,98808.97
2022-12-25T23:24:51.586Z,98807.19
2022-12-25T23:27:19.459Z,98798.53
2022-12-25T23:29:48.409Z,98813.34
2022-12-25T23:32:18.496Z,98805.56
2022-12-25T23:34:46.212Z,98809.16
2022-12-25T23:37:13.525Z,98803.09
2022-12-25T23:39:40.696Z,98804.13
2022-12-25T23:42:08.288Z,98799.88
2022-12-25T23:44:35.551Z,98794.84
2022-12-25T23:47:04.632Z,98792.97
2022-12-25T23:49:32.075Z,98793.75
2022-12-25T23:51:59.225Z,98797.69
2022-12-25T23:54:28.565Z,98798.19
2022-12-25T23:56:56.580Z,98788.44
2022-12-25T23:59:24.113Z,98784.69
